sensor_id;sensor_type;location;lat;lon;timestamp;pressure;altitude;pressure_sealevel;temperature;humidity
18569;BME280;14780;48.316;-1.050;2022-07-22T00:02:26;99363.75;;;23.66;49.12
18569;BME280;14780;48.316;-1.050;2022-07-22T00:05:11;99360.72;;;23.57;49.24
18569;BME280;14780;48.316;-1.050;2022-07-22T00:07:55;99362.31;;;23.53;49.42
18569;BME280;14780;48.316;-1.050;2022-07-22T00:10:41;99365.91;;;23.54;49.76
18569;BME280;14780;48.316;-1.050;2022-07-22T00:13:26;99350.81;;;23.46;49.18
18569;BME280;14780;48.316;-1.050;2022-07-22T00:16:10;99349.16;;;23.45;49.76
18569;BME280;14780;48.316;-1.050;2022-07-22T00:18:55;99347.19;;;23.36;49.57
18569;BME280;14780;48.316;-1.050;2022-07-22T00:21:39;99351.25;;;23.33;49.82
18569;BME280;14780;48.316;-1.050;2022-07-22T00:24:25;99346.34;;;23.31;49.89
18569;BME280;14780;48.316;-1.050;2022-07-22T00:27:10;99342.81;;;23.35;50.16
18569;BME280;14780;48.316;-1.050;2022-07-22T00:29:54;99341.97;;;23.30;49.92
18569;BME280;14780;48.316;-1.050;2022-07-22T00:32:39;99339.78;;;23.32;50.38
18569;BME280;14780;48.316;-1.050;2022-07-22T00:35:23;99349.00;;;23.21;50.54
18569;BME280;14780;48.316;-1.050;2022-07-22T00:38:09;99341.81;;;23.15;50.52
18569;BME280;14780;48.316;-1.050;2022-07-22T00:40:54;99343.41;;;23.06;50.63
18569;BME280;14780;48.316;-1.050;2022-07-22T00:43:58;99342.66;;;23.15;49.57
18569;BME280;14780;48.316;-1.050;2022-07-22T00:46:43;99337.34;;;23.04;50.67
18569;BME280;14780;48.316;-1.050;2022-07-22T00:49:28;99335.47;;;23.04;50.89
18569;BME280;14780;48.316;-1.050;2022-07-22T00:52:14;99329.16;;;23.04;50.93
18569;BME280;14780;48.316;-1.050;2022-07-22T00:55:00;99336.25;;;23.00;51.23
18569;BME280;14780;48.316;-1.050;2022-07-22T00:57:45;99329.91;;;22.94;50.77
18569;BME280;14780;48.316;-1.050;2022-07-22T01:00:30;99326.63;;;22.92;51.08
18569;BME280;14780;48.316;-1.050;2022-07-22T01:03:15;99333.34;;;22.80;51.15
18569;BME280;14780;48.316;-1.050;2022-07-22T01:06:00;99334.66;;;22.77;51.36
18569;BME280;14780;48.316;-1.050;2022-07-22T01:08:45;99326.19;;;22.74;51.68
18569;BME280;14780;48.316;-1.050;2022-07-22T01:11:30;99320.22;;;22.77;52.09
18569;BME280;14780;48.316;-1.050;2022-07-22T01:14:14;99324.28;;;22.74;51.94
18569;BME280;14780;48.316;-1.050;2022-07-22T01:16:59;99327.50;;;22.66;51.57
18569;BME280;14780;48.316;-1.050;2022-07-22T01:19:44;99322.03;;;22.66;52.08
18569;BME280;14780;48.316;-1.050;2022-07-22T01:22:30;99323.38;;;22.64;52.06
18569;BME280;14780;48.316;-1.050;2022-07-22T01:25:15;99323.94;;;22.66;52.26
18569;BME280;14780;48.316;-1.050;2022-07-22T01:28:00;99319.00;;;22.63;51.97
18569;BME280;14780;48.316;-1.050;2022-07-22T01:30:44;99321.16;;;22.61;52.54
18569;BME280;14780;48.316;-1.050;2022-07-22T01:33:29;99317.59;;;22.60;52.29
18569;BME280;14780;48.316;-1.050;2022-07-22T01:36:15;99310.47;;;22.54;52.51
18569;BME280;14780;48.316;-1.050;2022-07-22T01:38:59;99321.59;;;22.53;52.90
18569;BME280;14780;48.316;-1.050;2022-07-22T01:41:44;99322.16;;;22.55;53.00
18569;BME280;14780;48.316;-1.050;2022-07-22T01:44:31;99311.78;;;22.52;52.71
18569;BME280;14780;48.316;-1.050;2022-07-22T01:47:16;99323.16;;;22.44;53.23
18569;BME280;14780;48.316;-1.050;2022-07-22T01:50:02;99315.47;;;22.41;53.54
18569;BME280;14780;48.316;-1.050;2022-07-22T01:52:47;99314.66;;;22.40;53.91
18569;BME280;14780;48.316;-1.050;2022-07-22T01:55:31;99311.91;;;22.40;53.46
18569;BME280;14780;48.316;-1.050;2022-07-22T01:58:17;99310.53;;;22.38;53.52
18569;BME280;14780;48.316;-1.050;2022-07-22T02:01:02;99305.06;;;22.38;53.43
18569;BME280;14780;48.316;-1.050;2022-07-22T02:03:47;99306.72;;;22.39;53.56
18569;BME280;14780;48.316;-1.050;2022-07-22T02:06:31;99309.91;;;22.31;53.77
18569;BME280;14780;48.316;-1.050;2022-07-22T02:09:16;99309.97;;;22.36;53.67
18569;BME280;14780;48.316;-1.050;2022-07-22T02:12:01;99313.19;;;22.33;53.96
18569;BME280;14780;48.316;-1.050;2022-07-22T02:14:46;99304.69;;;22.29;54.19
18569;BME280;14780;48.316;-1.050;2022-07-22T02:17:33;99302.75;;;22.25;54.37
18569;BME280;14780;48.316;-1.050;2022-07-22T02:20:19;99307.63;;;22.23;54.43
18569;BME280;14780;48.316;-1.050;2022-07-22T02:23:04;99303.59;;;22.04;54.66
18569;BME280;14780;48.316;-1.050;2022-07-22T02:25:49;99306.31;;;22.04;54.89
18569;BME280;14780;48.316;-1.050;2022-07-22T02:28:35;99297.91;;;22.05;55.10
18569;BME280;14780;48.316;-1.050;2022-07-22T02:31:19;99288.66;;;22.06;55.47
18569;BME280;14780;48.316;-1.050;2022-07-22T02:34:04;99293.28;;;22.06;55.21
18569;BME280;14780;48.316;-1.050;2022-07-22T02:36:50;99289.97;;;22.04;55.08
18569;BME280;14780;48.316;-1.050;2022-07-22T02:39:34;99280.44;;;22.01;55.29
18569;BME280;14780;48.316;-1.050;2022-07-22T02:42:19;99286.13;;;22.00;55.52
18569;BME280;14780;48.316;-1.050;2022-07-22T02:45:04;99288.28;;;21.98;55.75
18569;BME280;14780;48.316;-1.050;2022-07-22T02:47:51;99292.34;;;21.95;55.56
18569;BME280;14780;48.316;-1.050;2022-07-22T02:50:36;99290.44;;;21.96;55.72
18569;BME280;14780;48.316;-1.050;2022-07-22T02:53:22;99290.38;;;21.91;55.87
18569;BME280;14780;48.316;-1.050;2022-07-22T02:56:07;99290.38;;;21.91;55.90
18569;BME280;14780;48.316;-1.050;2022-07-22T02:58:52;99275.69;;;21.92;55.66
18569;BME280;14780;48.316;-1.050;2022-07-22T03:01:38;99277.81;;;21.90;56.04
18569;BME280;14780;48.316;-1.050;2022-07-22T03:04:22;99282.72;;;21.88;55.76
18569;BME280;14780;48.316;-1.050;2022-07-22T03:07:07;99282.16;;;21.86;56.22
18569;BME280;14780;48.316;-1.050;2022-07-22T03:09:52;99274.22;;;21.84;56.52
18569;BME280;14780;48.316;-1.050;2022-07-22T03:12:36;99273.91;;;21.81;56.53
18569;BME280;14780;48.316;-1.050;2022-07-22T03:15:21;99272.25;;;21.80;56.55
18569;BME280;14780;48.316;-1.050;2022-07-22T03:18:06;99266.28;;;21.83;56.39
18569;BME280;14780;48.316;-1.050;2022-07-22T03:20:51;99268.47;;;21.81;56.60
18569;BME280;14780;48.316;-1.050;2022-07-22T03:23:35;99270.88;;;21.77;56.88
18569;BME280;14780;48.316;-1.050;2022-07-22T03:26:21;99268.91;;;21.73;56.47
18569;BME280;14780;48.316;-1.050;2022-07-22T03:29:06;99262.13;;;21.75;56.92
18569;BME280;14780;48.316;-1.050;2022-07-22T03:31:50;99246.56;;;21.71;56.58
18569;BME280;14780;48.316;-1.050;2022-07-22T03:34:35;99253.13;;;21.75;56.63
18569;BME280;14780;48.316;-1.050;2022-07-22T03:37:20;99245.72;;;21.70;57.04
18569;BME280;14780;48.316;-1.050;2022-07-22T03:40:05;99248.22;;;21.72;57.02
18569;BME280;14780;48.316;-1.050;2022-07-22T03:42:50;99238.41;;;21.71;57.31
18569;BME280;14780;48.316;-1.050;2022-07-22T03:45:35;99237.25;;;21.67;57.27
18569;BME280;14780;48.316;-1.050;2022-07-22T03:48:20;99236.84;;;21.58;57.36
18569;BME280;14780;48.316;-1.050;2022-07-22T03:51:04;99242.31;;;21.58;57.88
18569;BME280;14780;48.316;-1.050;2022-07-22T03:53:49;99242.03;;;21.60;57.54
18569;BME280;14780;48.316;-1.050;2022-07-22T03:56:34;99236.84;;;21.58;57.60
18569;BME280;14780;48.316;-1.050;2022-07-22T03:59:19;99241.38;;;21.53;57.81
18569;BME280;14780;48.316;-1.050;2022-07-22T04:02:04;99243.00;;;21.49;57.90
18569;BME280;14780;48.316;-1.050;2022-07-22T04:04:49;99235.38;;;21.51;58.00
18569;BME280;14780;48.316;-1.050;2022-07-22T04:07:33;99236.22;;;21.51;57.91
18569;BME280;14780;48.316;-1.050;2022-07-22T04:10:18;99231.25;;;21.48;57.78
18569;BME280;14780;48.316;-1.050;2022-07-22T04:13:02;99225.06;;;21.53;57.83
18569;BME280;14780;48.316;-1.050;2022-07-22T04:15:47;99226.13;;;21.52;58.09
18569;BME280;14780;48.316;-1.050;2022-07-22T04:18:33;99226.13;;;21.52;58.03
18569;BME280;14780;48.316;-1.050;2022-07-22T04:21:18;99217.72;;;21.53;57.94
18569;BME280;14780;48.316;-1.050;2022-07-22T04:24:03;99219.56;;;21.48;57.89
18569;BME280;14780;48.316;-1.050;2022-07-22T04:26:47;99222.09;;;21.54;58.17
18569;BME280;14780;48.316;-1.050;2022-07-22T04:29:32;99220.69;;;21.52;58.25
18569;BME280;14780;48.316;-1.050;2022-07-22T04:32:17;99221.56;;;21.57;58.19
18569;BME280;14780;48.316;-1.050;2022-07-22T04:35:02;99220.25;;;21.60;58.10
18569;BME280;14780;48.316;-1.050;2022-07-22T04:37:47;99220.19;;;21.55;58.38
18569;BME280;14780;48.316;-1.050;2022-07-22T04:40:32;99220.19;;;21.55;58.39
18569;BME280;14780;48.316;-1.050;2022-07-22T04:43:16;99215.88;;;21.59;58.58
18569;BME280;14780;48.316;-1.050;2022-07-22T04:46:01;99220.84;;;21.62;58.30
18569;BME280;14780;48.316;-1.050;2022-07-22T04:48:46;99216.53;;;21.66;58.67
18569;BME280;14780;48.316;-1.050;2022-07-22T04:51:30;99210.00;;;21.67;58.24
18569;BME280;14780;48.316;-1.050;2022-07-22T04:54:15;99217.84;;;21.63;58.36
18569;BME280;14780;48.316;-1.050;2022-07-22T04:56:59;99209.94;;;21.62;58.47
18569;BME280;14780;48.316;-1.050;2022-07-22T04:59:44;99217.59;;;21.65;58.48
18569;BME280;14780;48.316;-1.050;2022-07-22T05:02:29;99213.22;;;21.64;58.64
18569;BME280;14780;48.316;-1.050;2022-07-22T05:05:13;99223.63;;;21.67;58.71
18569;BME280;14780;48.316;-1.050;2022-07-22T05:07:58;99224.22;;;21.69;58.67
18569;BME280;14780;48.316;-1.050;2022-07-22T05:10:42;99218.78;;;21.69;58.52
18569;BME280;14780;48.316;-1.050;2022-07-22T05:13:27;99213.31;;;21.69;58.52
18569;BME280;14780;48.316;-1.050;2022-07-22T05:16:12;99194.56;;;21.72;58.44
18569;BME280;14780;48.316;-1.050;2022-07-22T05:18:57;99196.78;;;21.75;58.80
18569;BME280;14780;48.316;-1.050;2022-07-22T05:21:41;99193.44;;;21.68;58.60
18569;BME280;14780;48.316;-1.050;2022-07-22T05:24:26;99179.88;;;21.73;58.84
18569;BME280;14780;48.316;-1.050;2022-07-22T05:27:11;99190.31;;;21.81;58.74
18569;BME280;14780;48.316;-1.050;2022-07-22T05:29:57;99182.94;;;21.82;58.66
18569;BME280;14780;48.316;-1.050;2022-07-22T05:32:42;99190.09;;;21.88;58.99
18569;BME280;14780;48.316;-1.050;2022-07-22T05:35:26;99200.75;;;21.89;58.99
18569;BME280;14780;48.316;-1.050;2022-07-22T05:38:11;99197.41;;;22.09;59.00
18569;BME280;14780;48.316;-1.050;2022-07-22T05:40:56;99204.13;;;22.28;58.89
18569;BME280;14780;48.316;-1.050;2022-07-22T05:43:40;99204.03;;;22.44;58.76
18569;BME280;14780;48.316;-1.050;2022-07-22T05:46:25;99203.88;;;22.61;58.57
18569;BME280;14780;48.316;-1.050;2022-07-22T05:49:10;99203.44;;;22.74;58.40
18569;BME280;14780;48.316;-1.050;2022-07-22T05:51:54;99203.78;;;22.87;58.28
18569;BME280;14780;48.316;-1.050;2022-07-22T05:54:42;99197.31;;;22.98;58.17
18569;BME280;14780;48.316;-1.050;2022-07-22T05:57:26;99204.22;;;23.11;58.25
18569;BME280;14780;48.316;-1.050;2022-07-22T06:00:11;99200.75;;;23.20;58.19
18569;BME280;14780;48.316;-1.050;2022-07-22T06:02:56;99204.38;;;23.31;57.94
18569;BME280;14780;48.316;-1.050;2022-07-22T06:05:41;99209.84;;;23.40;57.78
18569;BME280;14780;48.316;-1.050;2022-07-22T06:08:25;99223.56;;;23.50;57.86
18569;BME280;14780;48.316;-1.050;2022-07-22T06:11:10;99220.34;;;23.58;57.65
18569;BME280;14780;48.316;-1.050;2022-07-22T06:13:55;99227.16;;;23.66;57.58
18569;BME280;14780;48.316;-1.050;2022-07-22T06:16:40;99237.63;;;23.74;57.58
18569;BME280;14780;48.316;-1.050;2022-07-22T06:19:24;99236.25;;;23.81;57.60
18569;BME280;14780;48.316;-1.050;2022-07-22T06:22:09;99247.25;;;23.86;57.46
18569;BME280;14780;48.316;-1.050;2022-07-22T06:24:54;99247.81;;;23.93;57.35
18569;BME280;14780;48.316;-1.050;2022-07-22T06:27:39;99253.28;;;23.98;57.22
18569;BME280;14780;48.316;-1.050;2022-07-22T06:30:23;99254.13;;;24.04;57.20
18569;BME280;14780;48.316;-1.050;2022-07-22T06:33:08;99246.22;;;24.07;57.19
18569;BME280;14780;48.316;-1.050;2022-07-22T06:35:53;99252.22;;;24.09;56.96
18569;BME280;14780;48.316;-1.050;2022-07-22T06:38:38;99252.78;;;24.11;56.78
18569;BME280;14780;48.316;-1.050;2022-07-22T06:41:23;99261.81;;;24.12;56.88
18569;BME280;14780;48.316;-1.050;2022-07-22T06:44:08;99262.59;;;24.12;56.85
18569;BME280;14780;48.316;-1.050;2022-07-22T06:46:53;99263.19;;;24.14;56.69
18569;BME280;14780;48.316;-1.050;2022-07-22T06:49:38;99267.00;;;24.18;56.62
18569;BME280;14780;48.316;-1.050;2022-07-22T06:52:22;99274.69;;;24.21;56.68
18569;BME280;14780;48.316;-1.050;2022-07-22T06:55:08;99283.16;;;24.25;56.50
18569;BME280;14780;48.316;-1.050;2022-07-22T06:57:53;99278.50;;;24.25;56.60
18569;BME280;14780;48.316;-1.050;2022-07-22T07:00:38;99276.31;;;24.27;56.63
18569;BME280;14780;48.316;-1.050;2022-07-22T07:03:23;99283.72;;;24.32;56.48
18569;BME280;14780;48.316;-1.050;2022-07-22T07:06:11;99287.81;;;24.34;56.51
18569;BME280;14780;48.316;-1.050;2022-07-22T07:08:55;99269.78;;;24.38;56.38
18569;BME280;14780;48.316;-1.050;2022-07-22T07:11:42;99262.13;;;24.40;56.37
18569;BME280;14780;48.316;-1.050;2022-07-22T07:14:27;99249.28;;;24.41;56.25
18569;BME280;14780;48.316;-1.050;2022-07-22T07:17:11;99250.09;;;24.41;56.26
18569;BME280;14780;48.316;-1.050;2022-07-22T07:19:56;99241.06;;;24.41;56.26
18569;BME280;14780;48.316;-1.050;2022-07-22T07:22:40;99244.63;;;24.41;56.22
18569;BME280;14780;48.316;-1.050;2022-07-22T07:25:25;99234.50;;;24.42;56.15
18569;BME280;14780;48.316;-1.050;2022-07-22T07:28:09;99230.41;;;24.44;56.01
18569;BME280;14780;48.316;-1.050;2022-07-22T07:30:54;99233.16;;;24.44;56.03
18569;BME280;14780;48.316;-1.050;2022-07-22T07:33:39;99238.06;;;24.47;55.86
18569;BME280;14780;48.316;-1.050;2022-07-22T07:36:24;99226.59;;;24.50;55.99
18569;BME280;14780;48.316;-1.050;2022-07-22T07:39:09;99223.88;;;24.55;55.95
18569;BME280;14780;48.316;-1.050;2022-07-22T07:41:53;99221.97;;;24.61;55.90
18569;BME280;14780;48.316;-1.050;2022-07-22T07:44:38;99221.69;;;24.67;55.75
18569;BME280;14780;48.316;-1.050;2022-07-22T07:47:23;99206.38;;;24.71;55.67
18569;BME280;14780;48.316;-1.050;2022-07-22T07:50:08;99212.94;;;24.75;55.48
18569;BME280;14780;48.316;-1.050;2022-07-22T07:52:53;99208.00;;;24.77;55.50
18569;BME280;14780;48.316;-1.050;2022-07-22T07:55:38;99208.56;;;24.79;55.39
18569;BME280;14780;48.316;-1.050;2022-07-22T07:58:24;99187.47;;;24.80;55.25
18569;BME280;14780;48.316;-1.050;2022-07-22T08:01:09;99185.56;;;24.80;55.16
18569;BME280;14780;48.316;-1.050;2022-07-22T08:03:54;99195.41;;;24.81;55.05
18569;BME280;14780;48.316;-1.050;2022-07-22T08:06:39;99196.25;;;24.82;54.95
18569;BME280;14780;48.316;-1.050;2022-07-22T08:09:24;99183.09;;;24.84;54.96
18569;BME280;14780;48.316;-1.050;2022-07-22T08:12:09;99194.31;;;24.87;54.89
18569;BME280;14780;48.316;-1.050;2022-07-22T08:14:54;99188.28;;;24.90;54.71
18569;BME280;14780;48.316;-1.050;2022-07-22T08:17:38;99195.38;;;24.91;54.65
18569;BME280;14780;48.316;-1.050;2022-07-22T08:20:24;99194.28;;;24.92;54.46
18569;BME280;14780;48.316;-1.050;2022-07-22T08:23:09;99203.06;;;24.94;54.39
18569;BME280;14780;48.316;-1.050;2022-07-22T08:25:54;99209.06;;;24.96;54.23
18569;BME280;14780;48.316;-1.050;2022-07-22T08:28:38;99229.03;;;25.02;54.30
18569;BME280;14780;48.316;-1.050;2022-07-22T08:31:23;99223.81;;;25.05;54.14
18569;BME280;14780;48.316;-1.050;2022-07-22T08:34:08;99228.47;;;25.10;53.85
18569;BME280;14780;48.316;-1.050;2022-07-22T08:36:53;99232.03;;;25.10;53.74
18569;BME280;14780;48.316;-1.050;2022-07-22T08:39:38;99237.53;;;25.10;53.62
18569;BME280;14780;48.316;-1.050;2022-07-22T08:42:23;99243.81;;;25.11;53.73
18569;BME280;14780;48.316;-1.050;2022-07-22T08:45:10;99238.34;;;25.11;53.48
18569;BME280;14780;48.316;-1.050;2022-07-22T08:47:55;99256.69;;;25.10;53.47
18569;BME280;14780;48.316;-1.050;2022-07-22T08:50:41;99256.16;;;25.08;53.43
18569;BME280;14780;48.316;-1.050;2022-07-22T08:53:26;99256.16;;;25.08;53.50
18569;BME280;14780;48.316;-1.050;2022-07-22T08:56:13;99263.25;;;25.09;53.45
18569;BME280;14780;48.316;-1.050;2022-07-22T08:58:58;99261.31;;;25.10;53.39
18569;BME280;14780;48.316;-1.050;2022-07-22T09:02:21;99272.00;;;25.26;53.30
18569;BME280;14780;48.316;-1.050;2022-07-22T09:05:08;99279.69;;;25.14;53.22
18569;BME280;14780;48.316;-1.050;2022-07-22T09:07:58;99274.47;;;25.18;53.01
18569;BME280;14780;48.316;-1.050;2022-07-22T09:10:43;99275.56;;;25.17;53.01
18569;BME280;14780;48.316;-1.050;2022-07-22T09:13:28;99270.66;;;25.19;52.92
18569;BME280;14780;48.316;-1.050;2022-07-22T09:16:41;99271.47;;;25.29;52.99
18569;BME280;14780;48.316;-1.050;2022-07-22T09:19:32;99264.63;;;25.27;52.79
18569;BME280;14780;48.316;-1.050;2022-07-22T09:28:16;99251.75;;;25.32;52.40
18569;BME280;14780;48.316;-1.050;2022-07-22T09:31:01;99252.84;;;25.36;52.44
18569;BME280;14780;48.316;-1.050;2022-07-22T09:33:46;99255.56;;;25.36;52.20
18569;BME280;14780;48.316;-1.050;2022-07-22T09:36:32;99246.25;;;25.37;52.16
18569;BME280;14780;48.316;-1.050;2022-07-22T09:39:36;99249.00;;;25.37;52.05
18569;BME280;14780;48.316;-1.050;2022-07-22T09:42:21;99252.28;;;25.39;52.09
18569;BME280;14780;48.316;-1.050;2022-07-22T09:45:06;99250.09;;;25.36;52.05
18569;BME280;14780;48.316;-1.050;2022-07-22T09:47:53;99265.69;;;25.36;52.01
18569;BME280;14780;48.316;-1.050;2022-07-22T09:50:38;99264.34;;;25.33;51.99
18569;BME280;14780;48.316;-1.050;2022-07-22T09:53:25;99273.66;;;25.32;51.83
18569;BME280;14780;48.316;-1.050;2022-07-22T09:56:13;99269.81;;;25.33;51.99
18569;BME280;14780;48.316;-1.050;2022-07-22T09:58:58;99269.81;;;25.33;51.97
18569;BME280;14780;48.316;-1.050;2022-07-22T10:01:43;99276.66;;;25.31;51.76
18569;BME280;14780;48.316;-1.050;2022-07-22T10:04:31;99273.66;;;25.32;51.90
18569;BME280;14780;48.316;-1.050;2022-07-22T10:07:18;99264.06;;;25.30;51.67
18569;BME280;14780;48.316;-1.050;2022-07-22T10:10:03;99270.38;;;25.30;51.69
18569;BME280;14780;48.316;-1.050;2022-07-22T10:12:49;99264.91;;;25.30;51.89
18569;BME280;14780;48.316;-1.050;2022-07-22T10:15:36;99261.84;;;25.32;51.61
18569;BME280;14780;48.316;-1.050;2022-07-22T10:18:21;99264.34;;;25.33;51.79
18569;BME280;14780;48.316;-1.050;2022-07-22T10:21:09;99255.31;;;25.33;51.70
18569;BME280;14780;48.316;-1.050;2022-07-22T10:24:13;99281.31;;;25.40;51.77
18569;BME280;14780;48.316;-1.050;2022-07-22T10:26:59;99288.19;;;25.28;51.83
18569;BME280;14780;48.316;-1.050;2022-07-22T10:29:46;99288.19;;;25.28;51.74
18569;BME280;14780;48.316;-1.050;2022-07-22T10:32:32;99285.19;;;25.29;51.72
18569;BME280;14780;48.316;-1.050;2022-07-22T10:35:22;99276.38;;;25.37;51.56
18569;BME280;14780;48.316;-1.050;2022-07-22T10:38:09;99256.91;;;25.39;51.43
18569;BME280;14780;48.316;-1.050;2022-07-22T10:41:01;99253.38;;;25.43;51.57
18569;BME280;14780;48.316;-1.050;2022-07-22T10:43:47;99272.53;;;25.38;51.24
18569;BME280;14780;48.316;-1.050;2022-07-22T10:46:54;99281.03;;;25.47;51.47
18569;BME280;14780;48.316;-1.050;2022-07-22T10:49:40;99271.72;;;25.38;51.37
18569;BME280;14780;48.316;-1.050;2022-07-22T10:52:34;99275.28;;;25.43;51.37
18569;BME280;14780;48.316;-1.050;2022-07-22T10:55:21;99264.88;;;25.40;51.37
18569;BME280;14780;48.316;-1.050;2022-07-22T11:01:19;99259.09;;;25.47;51.16
18569;BME280;14780;48.316;-1.050;2022-07-22T11:04:16;99258.28;;;25.51;51.13
18569;BME280;14780;48.316;-1.050;2022-07-22T11:07:02;99262.91;;;25.46;51.00
18569;BME280;14780;48.316;-1.050;2022-07-22T11:09:48;99269.75;;;25.48;50.99
18569;BME280;14780;48.316;-1.050;2022-07-22T11:12:33;99271.72;;;25.48;50.97
18569;BME280;14780;48.316;-1.050;2022-07-22T11:15:18;99271.72;;;25.48;50.93
18569;BME280;14780;48.316;-1.050;2022-07-22T11:18:03;99281.03;;;25.47;50.88
18569;BME280;14780;48.316;-1.050;2022-07-22T11:20:48;99277.19;;;25.48;50.85
18569;BME280;14780;48.316;-1.050;2022-07-22T11:23:34;99271.41;;;25.49;51.06
18569;BME280;14780;48.316;-1.050;2022-07-22T11:26:40;99277.16;;;25.53;50.73
18569;BME280;14780;48.316;-1.050;2022-07-22T11:32:11;99285.66;;;25.51;50.72
18569;BME280;14780;48.316;-1.050;2022-07-22T11:34:57;99283.72;;;25.52;50.59
18569;BME280;14780;48.316;-1.050;2022-07-22T11:37:42;99287.31;;;25.52;50.59
18569;BME280;14780;48.316;-1.050;2022-07-22T11:40:32;99292.78;;;25.57;50.78
18569;BME280;14780;48.316;-1.050;2022-07-22T11:43:17;99299.06;;;25.53;50.59
18569;BME280;14780;48.316;-1.050;2022-07-22T11:46:02;99301.28;;;25.51;50.57
18569;BME280;14780;48.316;-1.050;2022-07-22T11:48:46;99296.63;;;25.51;50.70
18569;BME280;14780;48.316;-1.050;2022-07-22T11:51:32;99289.50;;;25.50;50.53
18569;BME280;14780;48.316;-1.050;2022-07-22T11:54:18;99284.56;;;25.52;50.48
18569;BME280;14780;48.316;-1.050;2022-07-22T11:57:03;99283.47;;;25.53;50.46
18569;BME280;14780;48.316;-1.050;2022-07-22T11:59:48;99278.50;;;25.55;50.59
18569;BME280;14780;48.316;-1.050;2022-07-22T12:02:33;99292.78;;;25.57;50.43
18569;BME280;14780;48.316;-1.050;2022-07-22T12:05:18;99293.84;;;25.61;50.30
18569;BME280;14780;48.316;-1.050;2022-07-22T12:08:04;99296.59;;;25.61;50.52
18569;BME280;14780;48.316;-1.050;2022-07-22T12:10:48;99293.28;;;25.64;50.38
18569;BME280;14780;48.316;-1.050;2022-07-22T12:13:34;99302.59;;;25.63;50.01
18569;BME280;14780;48.316;-1.050;2022-07-22T12:16:25;99300.13;;;25.67;50.28
18569;BME280;14780;48.316;-1.050;2022-07-22T12:19:13;99296.84;;;25.65;50.24
18569;BME280;14780;48.316;-1.050;2022-07-22T12:22:07;99300.13;;;25.67;50.07
18569;BME280;14780;48.316;-1.050;2022-07-22T12:25:00;99296.00;;;25.69;50.05
18569;BME280;14780;48.316;-1.050;2022-07-22T12:28:00;99295.47;;;25.72;50.04
18569;BME280;14780;48.316;-1.050;2022-07-22T12:30:47;99297.94;;;25.64;49.95
18569;BME280;14780;48.316;-1.050;2022-07-22T12:33:31;99295.47;;;25.62;49.95
18569;BME280;14780;48.316;-1.050;2022-07-22T12:36:16;99291.09;;;25.66;49.91
18569;BME280;14780;48.316;-1.050;2022-07-22T12:39:12;99294.91;;;25.75;50.06
18569;BME280;14780;48.316;-1.050;2022-07-22T12:41:57;99293.81;;;25.71;49.95
18569;BME280;14780;48.316;-1.050;2022-07-22T12:50:24;99295.44;;;25.77;49.61
18569;BME280;14780;48.316;-1.050;2022-07-22T12:53:15;99288.31;;;25.81;49.65
18569;BME280;14780;48.316;-1.050;2022-07-22T12:56:00;99290.50;;;25.79;49.50
18569;BME280;14780;48.316;-1.050;2022-07-22T12:58:47;99291.59;;;25.78;49.63
18569;BME280;14780;48.316;-1.050;2022-07-22T13:01:32;99290.50;;;25.79;49.57
18569;BME280;14780;48.316;-1.050;2022-07-22T13:04:16;99286.09;;;25.83;49.58
18569;BME280;14780;48.316;-1.050;2022-07-22T13:07:01;99295.94;;;25.84;49.49
18569;BME280;14780;48.316;-1.050;2022-07-22T13:09:45;99296.50;;;25.86;49.44
18569;BME280;14780;48.316;-1.050;2022-07-22T13:12:30;99292.09;;;25.85;49.18
18569;BME280;14780;48.316;-1.050;2022-07-22T13:15:15;99290.19;;;25.86;49.22
18569;BME280;14780;48.316;-1.050;2022-07-22T13:18:00;99291.03;;;25.86;49.20
18569;BME280;14780;48.316;-1.050;2022-07-22T13:20:45;99298.16;;;25.87;49.10
18569;BME280;14780;48.316;-1.050;2022-07-22T13:23:31;99302.00;;;25.86;49.19
18569;BME280;14780;48.316;-1.050;2022-07-22T13:26:15;99300.31;;;25.85;49.19
18569;BME280;14780;48.316;-1.050;2022-07-22T13:29:00;99308.84;;;25.84;49.27
18569;BME280;14780;48.316;-1.050;2022-07-22T13:31:45;99309.41;;;25.81;49.00
18569;BME280;14780;48.316;-1.050;2022-07-22T13:34:30;99305.00;;;25.80;49.10
18569;BME280;14780;48.316;-1.050;2022-07-22T13:37:15;99312.72;;;25.78;49.23
18569;BME280;14780;48.316;-1.050;2022-07-22T13:40:00;99306.97;;;25.74;49.27
18569;BME280;14780;48.316;-1.050;2022-07-22T13:42:45;99315.72;;;25.71;49.29
18569;BME280;14780;48.316;-1.050;2022-07-22T13:45:30;99315.72;;;25.71;49.20
18569;BME280;14780;48.316;-1.050;2022-07-22T13:48:15;99316.81;;;25.70;49.21
18569;BME280;14780;48.316;-1.050;2022-07-22T13:51:03;99319.56;;;25.70;49.14
18569;BME280;14780;48.316;-1.050;2022-07-22T13:53:49;99319.03;;;25.68;49.39
18569;BME280;14780;48.316;-1.050;2022-07-22T13:56:34;99320.41;;;25.66;49.32
18569;BME280;14780;48.316;-1.050;2022-07-22T13:59:19;99316.88;;;25.65;49.09
18569;BME280;14780;48.316;-1.050;2022-07-22T14:02:04;99311.38;;;25.65;49.41
18569;BME280;14780;48.316;-1.050;2022-07-22T14:04:49;99315.75;;;25.66;49.28
18569;BME280;14780;48.316;-1.050;2022-07-22T14:07:34;99316.56;;;25.67;49.32
18569;BME280;14780;48.316;-1.050;2022-07-22T14:10:19;99323.97;;;25.66;49.34
18569;BME280;14780;48.316;-1.050;2022-07-22T14:13:04;99320.16;;;25.67;49.11
18569;BME280;14780;48.316;-1.050;2022-07-22T14:15:51;99324.78;;;25.67;49.16
18569;BME280;14780;48.316;-1.050;2022-07-22T14:18:35;99325.63;;;25.67;49.40
18569;BME280;14780;48.316;-1.050;2022-07-22T14:21:20;99311.38;;;25.65;49.34
18569;BME280;14780;48.316;-1.050;2022-07-22T14:24:06;99313.81;;;25.67;49.27
18569;BME280;14780;48.316;-1.050;2022-07-22T14:26:51;99315.47;;;25.68;49.27
18569;BME280;14780;48.316;-1.050;2022-07-22T14:29:36;99321.25;;;25.66;49.33
18569;BME280;14780;48.316;-1.050;2022-07-22T14:32:20;99325.88;;;25.66;49.30
18569;BME280;14780;48.316;-1.050;2022-07-22T14:35:05;99322.34;;;25.65;49.30
18569;BME280;14780;48.316;-1.050;2022-07-22T14:37:50;99319.59;;;25.65;49.25
18569;BME280;14780;48.316;-1.050;2022-07-22T14:40:36;99320.16;;;25.67;49.21
18569;BME280;14780;48.316;-1.050;2022-07-22T14:43:20;99315.47;;;25.68;49.22
18569;BME280;14780;48.316;-1.050;2022-07-22T14:46:06;99318.19;;;25.68;49.11